AirNav   Advertisement
 
 1091 users online  

MA33 Sagamore Hill Heliport
Ipswich, Massachusetts, USA

GOING TO IPSWICH?


FAA INFORMATION EFFECTIVE 20 JULY 2017

Location

FAA Identifier: MA33
Lat/Long: 42-38-30.9400N / 070-49-36.3700W
42-38.515667N / 070-49.606167W
42.6419278 / -70.8267694
(estimated)
Elevation: 200 ft. / 61 m (estimated)
Variation: 16W (2000)
From city: 5 miles SW of IPSWICH, MA
Time zone: UTC -4 (UTC -5 during Standard Time)
Zip code: 01938

Heliport Operations

Heliport use: Private use. Permission required prior to landing
Activation date: 04/2001
Control tower: no
ARTCC: BOSTON CENTER
FSS: BRIDGEPORT FLIGHT SERVICE STATION
Attendance: UNATNDD
Segmented circle: no

Heliport Communications

WX ASOS at BVY (5 nm SW): PHONE 978-921-5042
WX ASOS at LWM (14 nm W): 126.75 (978-687-8017)
WX ASOS at BOS (19 nm SW): PHONE 617-567-5762

Nearby radio navigation aids

VOR radial/distance  VOR name  Freq  Var
LWMr132/13.2LAWRENCE VOR/DME112.5015W
BOSr039/18.5BOSTON VOR/DME112.7016W
PSMr196/26.6PEASE VOR/DME116.5016W
MHTr135/27.5MANCHESTER VOR/DME114.4015W

 
NDB name  Hdg/Dist  Freq  Var  ID
SHAKER HILL070/19.125116WSKR ... -.- .-.
MARSHFIELD004/33.336816WIMR .. -- .-.
ROLLINS196/34.726016WESG . ... --.

Heliport Services

Runway Information

Helipad HI

Dimensions: 50 x 50 ft. / 15 x 15 m
Surface: turf
Traffic pattern: leftleft

Heliport Ownership and Management from official FAA records

Ownership: Privately-owned
Owner: JOHN DONOVAN
219 VASSAR ST
CAMBRIDGE, MA 02139
Phone 617-528-1699
Manager: JOHN DONOVAN
219 VASSAR ST.
CAMBRIDGE, MA 02139
Phone 617-528-1699

Additional Remarks

25 FT TREES ALL QUANDRANTS.
SCHOOL 3,800 FT NE OF HELIPAD.

Instrument Procedures

There are no published instrument procedures at MA33.

Some nearby airports with instrument procedures:

KBVY - Beverly Regional Airport (5 nm SW)
KLWM - Lawrence Municipal Airport (14 nm W)
KBOS - General Edward Lawrence Logan International Airport (19 nm SW)
KBED - Laurence G Hanscom Field Airport (23 nm SW)
KPSM - Portsmouth International Airport at Pease (26 nm N)
 
Loc | Ops | Rwys | IFR | FBO | Links
Com | Nav | Svcs | Stats | Notes


 
Area around MA33 (Sagamore Hill Heliport)
 
Road maps at: MapQuest Bing Google
 
Aerial photo
No photo
 
Sectional chart

 
Airport distance calculator
Flying to Sagamore Hill Heliport? Find the distance to fly.

From to MA33

Sunrise and sunset
Times for 22-Jul-2017
 Local
(UTC-4)
 Zulu
(UTC)
Morning civil twilight04:5308:53
Sunrise05:2609:26
Sunset20:1300:13
Evening civil twilight20:4600:46

Current date and time
Zulu (UTC)  22-Jul-2017 15:07:49
Local (UTC-4)  22-Jul-2017 11:07:49
 
METAR
KBVY 
5nm SW 
221453Z 00000KT 10SM CLR 26/19 A2986 RMK AO2 SLP104 T02610189 58002
KLWM 
14nm W 
221454Z 00000KT 10SM CLR 27/17 A2988 RMK AO2 SLP116 T02670172 58003
KBOS 
19nm SW 
221454Z 05004KT 10SM BKN180 28/17 A2986 RMK AO2 SLP110 T02780167 58004
TAF
KBOS 
19nm SW 
221130Z 2212/2318 29008KT P6SM BKN150 FM221430 11010KT P6SM BKN150 FM221800 11008KT P6SM SCT140 FM222300 18008KT P6SM BKN050 FM230200 26005KT P6SM BKN090 FM231700 07009KT P6SM BKN050
NOTAMs
Click for the latest NOTAMs
NOTAMs are issued by the DoD/FAA and will open in a separate window not controlled by AirNav.

 

 
 

Would you like to see your business listed on this page?

 If your business provides an interesting product or service to pilots, flight crews, aircraft, or users of the Sagamore Hill Heliport, you should consider listing it here.  To start the listing process, click on the button below
 
Add a business
 

Other Pages about Sagamore Hill Heliport

Update a link
 
Copyright © AirNav, LLC. All rights reserved. Privacy Policy  Contact